Time;durP1;ratioP1;P1;durP2;ratioP2;P2;SDS_P1;SDS_P2;PMS_P1;PMS_P2;Temp;Humidity;BMP_temperature;BMP_pressure;BME280_temperature;BME280_humidity;BME280_pressure;Samples;Min_cycle;Max_cycle;Signal;HPM_P1;HPM_P2
2023/10/27 00:01:57;;;;;;;;;;;;;;;22.23;53.70;99690.22;7393795;19;1423;-43
2023/10/27 00:04:26;;;;;;;;;;;;;;;22.22;53.59;99704.72;7394429;19;1488;-43
2023/10/27 00:06:55;;;;;;;;;;;;;;;22.22;53.59;99693.94;7393927;19;1501;-44
2023/10/27 00:09:23;;;;;;;;;;;;;;;22.20;53.54;99689.75;7395500;19;1510;-43
2023/10/27 00:11:51;;;;;;;;;;;;;;;22.20;53.57;99682.53;7392195;19;1896;-44
2023/10/27 00:14:19;;;;;;;;;;;;;;;22.20;53.60;99690.59;7393415;19;1871;-43
2023/10/27 00:16:54;;;;;;;;;;;;;;;22.28;53.39;99696.94;7393801;19;1590;-44
2023/10/27 00:19:22;;;;;;;;;;;;;;;22.27;53.29;99685.34;7392524;19;1527;-43
2023/10/27 00:21:51;;;;;;;;;;;;;;;22.21;53.33;99668.03;7393793;19;1440;-43
2023/10/27 00:24:19;;;;;;;;;;;;;;;22.22;53.42;99685.88;7393565;19;1492;-43
2023/10/27 00:26:47;;;;;;;;;;;;;;;22.21;53.63;99686.03;7393373;19;1377;-44
2023/10/27 00:29:16;;;;;;;;;;;;;;;22.21;53.53;99684.19;7393737;19;1464;-43
2023/10/27 00:31:44;;;;;;;;;;;;;;;21.72;53.40;99598.47;7394586;19;1475;-43
2023/10/27 00:34:15;;;;;;;;;;;;;;;22.23;53.40;99682.13;7393660;19;1841;-43
2023/10/27 00:36:43;;;;;;;;;;;;;;;22.20;53.53;99677.13;7393882;19;1598;-43
2023/10/27 00:39:12;;;;;;;;;;;;;;;22.19;53.43;99669.22;7393689;19;1587;-43
2023/10/27 00:41:40;;;;;;;;;;;;;;;22.19;53.45;99666.53;7392006;19;1688;-43
2023/10/27 00:44:08;;;;;;;;;;;;;;;22.19;53.21;99663.84;7390478;19;1344;-44
2023/10/27 00:46:39;;;;;;;;;;;;;;;22.19;53.18;99651.22;7393521;19;1914;-43
2023/10/27 00:49:07;;;;;;;;;;;;;;;22.25;52.99;99652.38;7385442;19;1397;-44
2023/10/27 00:51:38;;;;;;;;;;;;;;;22.25;52.93;99652.38;7387638;19;1658;-43
2023/10/27 00:54:08;;;;;;;;;;;;;;;22.24;53.15;99656.94;7391289;19;1858;-44
2023/10/27 00:56:37;;;;;;;;;;;;;;;22.17;53.21;99642.47;7390142;19;1864;-43
2023/10/27 00:59:05;;;;;;;;;;;;;;;22.18;53.34;99640.63;7391795;19;1591;-43
2023/10/27 01:01:34;;;;;;;;;;;;;;;22.16;53.12;99656.13;7391911;19;1506;-43
2023/10/27 01:04:03;;;;;;;;;;;;;;;22.20;53.02;99658.28;7392291;19;1385;-43
2023/10/27 01:06:32;;;;;;;;;;;;;;;22.17;53.26;99666.72;7392195;19;1496;-43
2023/10/27 01:09:03;;;;;;;;;;;;;;;22.16;53.34;99659.66;7391385;19;1512;-47
2023/10/27 01:11:31;;;;;;;;;;;;;;;22.13;53.29;99660.03;7392782;19;1196;-43
2023/10/27 01:14:00;;;;;;;;;;;;;;;22.15;53.03;99666.06;7391252;19;2224;-43
2023/10/27 01:16:28;;;;;;;;;;;;;;;22.15;53.27;99674.13;7391586;19;1369;-43
2023/10/27 01:18:56;;;;;;;;;;;;;;;22.14;53.15;99668.94;7388631;19;1452;-43
2023/10/27 01:21:25;;;;;;;;;;;;;;;22.13;53.15;99676.19;7391635;19;1449;-43
2023/10/27 01:23:56;;;;;;;;;;;;;;;22.14;53.11;99698.53;7389053;19;1460;-44
2023/10/27 01:26:24;;;;;;;;;;;;;;;22.16;52.96;99707.28;7391545;19;1374;-43
2023/10/27 01:28:52;;;;;;;;;;;;;;;22.14;53.21;99704.75;7391383;19;1195;-43
2023/10/27 01:31:21;;;;;;;;;;;;;;;22.13;52.84;99686.13;7390042;19;1524;-43
2023/10/27 01:33:49;;;;;;;;;;;;;;;22.15;53.17;99701.06;7389085;19;1840;-43
2023/10/27 01:36:17;;;;;;;;;;;;;;;22.13;52.88;99694.19;7390106;19;1595;-43
2023/10/27 01:38:46;;;;;;;;;;;;;;;22.17;53.07;99698.19;7388465;19;1359;-43
2023/10/27 01:41:17;;;;;;;;;;;;;;;22.14;53.11;99701.25;7391840;19;1457;-43
2023/10/27 01:43:45;;;;;;;;;;;;;;;22.09;52.98;99691.03;7390373;19;1598;-43
2023/10/27 01:46:13;;;;;;;;;;;;;;;22.08;53.30;99689.34;7390986;19;1485;-43
2023/10/27 01:48:42;;;;;;;;;;;;;;;22.08;53.11;99686.66;7391676;19;1535;-43
2023/10/27 01:51:10;;;;;;;;;;;;;;;22.07;53.12;99690.38;7376670;19;1583;-44
2023/10/27 01:53:38;;;;;;;;;;;;;;;22.08;52.98;99689.34;7390147;19;1863;-43
2023/10/27 01:56:07;;;;;;;;;;;;;;;22.11;52.78;99680.91;7392237;19;1380;-43
2023/10/27 01:58:40;;;;;;;;;;;;;;;22.12;52.81;99673.66;7391004;19;1869;-43
2023/10/27 02:01:08;;;;;;;;;;;;;;;22.09;52.83;99657.88;7390888;19;1504;-43
2023/10/27 02:03:37;;;;;;;;;;;;;;;22.07;52.88;99663.44;7390108;19;1401;-43
2023/10/27 02:06:05;;;;;;;;;;;;;;;22.11;52.95;99678.22;7390677;19;1599;-42
2023/10/27 02:08:35;;;;;;;;;;;;;;;22.10;52.89;99673.00;7390195;19;1518;-43
2023/10/27 02:11:03;;;;;;;;;;;;;;;22.10;52.76;99698.06;7392107;19;1679;-43
2023/10/27 02:13:31;;;;;;;;;;;;;;;22.09;52.86;99684.81;7389124;19;1922;-43
2023/10/27 02:16:02;;;;;;;;;;;;;;;22.10;52.73;99681.09;7390472;19;1493;-43
2023/10/27 02:18:31;;;;;;;;;;;;;;;22.09;52.63;99698.28;7390377;19;1511;-43
2023/10/27 02:20:59;;;;;;;;;;;;;;;22.08;52.85;99693.91;7391624;19;1476;-43
2023/10/27 02:23:27;;;;;;;;;;;;;;;22.07;52.91;99685.00;7390635;19;1702;-43
2023/10/27 02:25:56;;;;;;;;;;;;;;;22.04;52.75;99707.72;7389205;19;1600;-43
2023/10/27 02:28:24;;;;;;;;;;;;;;;22.04;52.81;99699.66;7389247;19;1385;-43
2023/10/27 02:30:52;;;;;;;;;;;;;;;22.06;52.86;99691.38;7390641;19;1444;-43
2023/10/27 02:33:24;;;;;;;;;;;;;;;22.05;52.73;99709.41;7390242;19;1853;-43
2023/10/27 02:35:52;;;;;;;;;;;;;;;22.05;52.71;99709.41;7389972;19;1537;-43
2023/10/27 02:38:20;;;;;;;;;;;;;;;22.07;52.80;99703.00;7390268;19;1525;-43
2023/10/27 02:40:49;;;;;;;;;;;;;;;22.08;52.90;99708.19;7389490;19;1618;-43
2023/10/27 02:43:17;;;;;;;;;;;;;;;22.07;52.58;99711.91;7389745;19;1397;-43
2023/10/27 02:45:45;;;;;;;;;;;;;;;22.02;52.82;99687.38;7389958;19;1443;-43
2023/10/27 02:48:14;;;;;;;;;;;;;;;22.06;52.79;99696.75;7390372;19;1576;-43
2023/10/27 02:50:44;;;;;;;;;;;;;;;22.08;52.56;99700.09;7378224;19;1579;-43
2023/10/27 02:53:13;;;;;;;;;;;;;;;22.05;52.81;99692.41;7396577;19;1834;-43
2023/10/27 02:55:41;;;;;;;;;;;;;;;22.01;52.57;99677.66;7397058;19;1593;-43
2023/10/27 02:58:09;;;;;;;;;;;;;;;22.01;52.77;99688.41;7396212;19;1619;-43
2023/10/27 03:00:41;;;;;;;;;;;;;;;22.07;52.48;99693.06;7396406;19;1463;-42
2023/10/27 03:03:10;;;;;;;;;;;;;;;22.03;52.84;99681.81;7395266;19;1401;-44
2023/10/27 03:05:38;;;;;;;;;;;;;;;22.08;52.50;99675.03;7394162;19;1467;-43
2023/10/27 03:08:09;;;;;;;;;;;;;;;22.07;52.54;99692.25;7395623;19;1366;-43
2023/10/27 03:10:38;;;;;;;;;;;;;;;22.06;52.72;99677.91;7395884;19;1833;-43
2023/10/27 03:13:08;;;;;;;;;;;;;;;22.02;52.57;99680.16;7394793;19;1967;-43
2023/10/27 03:15:36;;;;;;;;;;;;;;;21.99;52.70;99679.69;7394843;19;1853;-43
2023/10/27 03:18:05;;;;;;;;;;;;;;;21.50;52.51;99608.25;7395997;19;1523;-43
2023/10/27 03:20:33;;;;;;;;;;;;;;;22.04;52.76;99706.88;7394518;19;1413;-43
2023/10/27 03:23:01;;;;;;;;;;;;;;;22.06;52.61;99686.00;7393977;19;1481;-43
2023/10/27 03:25:32;;;;;;;;;;;;;;;21.58;52.43;99621.63;7395281;19;1590;-43
2023/10/27 03:28:00;;;;;;;;;;;;;;;22.08;52.52;99689.34;7395424;19;1408;-44
2023/10/27 03:30:29;;;;;;;;;;;;;;;22.06;52.61;99696.75;7394456;19;1398;-43
2023/10/27 03:32:57;;;;;;;;;;;;;;;22.05;52.57;99709.41;7394683;19;1543;-44
2023/10/27 03:35:25;;;;;;;;;;;;;;;22.11;52.43;99698.94;7393535;19;1861;-43
2023/10/27 03:37:54;;;;;;;;;;;;;;;22.10;52.55;99706.16;7396187;19;1483;-43
2023/10/27 03:40:22;;;;;;;;;;;;;;;21.99;52.47;99685.06;7395219;19;1501;-43
2023/10/27 03:42:53;;;;;;;;;;;;;;;21.94;52.74;99682.06;7394976;19;1523;-43
2023/10/27 03:45:21;;;;;;;;;;;;;;;22.01;52.63;99683.03;7394142;19;1487;-43
2023/10/27 03:47:49;;;;;;;;;;;;;;;21.98;52.53;99686.06;7394252;19;1476;-43
2023/10/27 03:50:18;;;;;;;;;;;;;;;21.95;53.07;99676.50;7379655;19;1520;-45
2023/10/27 03:52:46;;;;;;;;;;;;;;;22.08;52.36;99680.44;7395997;19;1503;-42
2023/10/27 03:55:14;;;;;;;;;;;;;;;21.98;52.25;99680.69;7391857;19;1868;-43
2023/10/27 03:57:43;;;;;;;;;;;;;;;21.93;52.44;99670.47;7395242;19;1544;-43
2023/10/27 04:00:15;;;;;;;;;;;;;;;21.76;53.75;99669.75;7392388;19;1396;-42
2023/10/27 04:02:45;;;;;;;;;;;;;;;21.89;53.31;99673.72;7394245;19;1356;-42
2023/10/27 04:05:13;;;;;;;;;;;;;;;21.75;53.29;99667.25;7393949;19;1488;-43
2023/10/27 04:07:42;;;;;;;;;;;;;;;21.78;53.19;99662.34;7394726;19;1526;-43
2023/10/27 04:10:10;;;;;;;;;;;;;;;22.03;52.87;99662.97;6371195;19;10000723;-43
2023/10/27 04:12:39;;;;;;;;;;;;;;;22.07;52.53;99658.06;7387831;19;1495;-43
2023/10/27 04:15:08;;;;;;;;;;;;;;;22.04;52.81;99666.50;7388219;19;1862;-43
2023/10/27 04:17:39;;;;;;;;;;;;;;;21.96;52.72;99656.63;7389587;19;1547;-43
2023/10/27 04:20:08;;;;;;;;;;;;;;;21.90;52.90;99659.22;7318811;19;13687;-43
2023/10/27 04:22:37;;;;;;;;;;;;;;;21.96;52.68;99647.72;7386453;19;1597;-42
2023/10/27 04:25:05;;;;;;;;;;;;;;;21.91;52.88;99648.28;7385505;19;1847;-43
2023/10/27 04:27:33;;;;;;;;;;;;;;;21.85;52.99;99647.16;7384920;19;1839;-43
2023/10/27 04:30:04;;;;;;;;;;;;;;;21.85;52.80;99647.16;7387514;19;1847;-43
2023/10/27 04:32:32;;;;;;;;;;;;;;;21.81;52.74;99647.72;7386010;19;1593;-43
2023/10/27 04:35:03;;;;;;;;;;;;;;;21.80;52.62;99640.63;7386667;19;1853;-43
2023/10/27 04:37:32;;;;;;;;;;;;;;;21.74;52.67;99642.19;7386929;19;1581;-43
2023/10/27 04:40:00;;;;;;;;;;;;;;;21.77;52.75;99644.53;7388489;19;1497;-43
2023/10/27 04:42:28;;;;;;;;;;;;;;;21.82;52.49;99652.06;7381293;19;1865;-45
2023/10/27 04:44:57;;;;;;;;;;;;;;;21.84;52.59;99650.88;7387928;19;1465;-45
2023/10/27 04:47:25;;;;;;;;;;;;;;;21.83;52.40;99651.06;7387064;19;1546;-44
2023/10/27 04:49:54;;;;;;;;;;;;;;;21.88;52.31;99661.25;7387958;19;1562;-44
2023/10/27 04:52:25;;;;;;;;;;;;;;;21.41;52.17;99575.19;7372089;19;1537;-44
2023/10/27 04:54:53;;;;;;;;;;;;;;;21.82;52.20;99642.13;7387993;19;1873;-45
2023/10/27 04:57:21;;;;;;;;;;;;;;;21.76;52.33;99642.84;7386152;19;2443;-44
2023/10/27 04:59:49;;;;;;;;;;;;;;;21.79;52.12;99653.25;7386880;19;1558;-44
2023/10/27 05:02:18;;;;;;;;;;;;;;;21.82;52.24;99663.66;7386831;19;1634;-45
2023/10/27 05:04:46;;;;;;;;;;;;;;;21.78;52.26;99648.88;7386821;19;1538;-45
2023/10/27 05:07:15;;;;;;;;;;;;;;;21.81;52.35;99675.44;7385353;19;1417;-44
2023/10/27 05:09:45;;;;;;;;;;;;;;;21.74;52.41;99649.44;7387214;19;1151;-45
2023/10/27 05:12:14;;;;;;;;;;;;;;;21.76;52.39;99663.53;7383704;19;1535;-45
2023/10/27 05:14:42;;;;;;;;;;;;;;;21.77;52.19;99644.53;7387787;19;1865;-44
2023/10/27 05:17:11;;;;;;;;;;;;;;;21.79;52.45;99658.66;7386854;19;1547;-44
2023/10/27 05:19:39;;;;;;;;;;;;;;;21.83;52.28;99659.94;7390756;19;1523;-45
2023/10/27 05:22:07;;;;;;;;;;;;;;;21.74;52.36;99652.94;7385859;19;1605;-44
2023/10/27 05:24:36;;;;;;;;;;;;;;;21.36;50.54;99657.41;7388156;19;1600;-44
2023/10/27 05:27:07;;;;;;;;;;;;;;;20.84;50.81;99675.00;7388289;19;1314;-44
2023/10/27 05:29:35;;;;;;;;;;;;;;;20.58;51.17;99664.47;7387048;19;1368;-44
2023/10/27 05:32:03;;;;;;;;;;;;;;;20.45;51.32;99651.56;7387884;19;1354;-44
2023/10/27 05:34:31;;;;;;;;;;;;;;;20.33;51.72;99655.63;7387686;19;1851;-44
2023/10/27 05:37:00;;;;;;;;;;;;;;;20.39;51.92;99655.81;7388754;19;1551;-44
2023/10/27 05:39:29;;;;;;;;;;;;;;;20.66;51.29;99662.63;7390593;19;1492;-44
2023/10/27 05:41:57;;;;;;;;;;;;;;;20.99;50.42;99672.38;7389945;19;1439;-45
2023/10/27 05:44:28;;;;;;;;;;;;;;;21.18;50.37;99652.31;7391497;19;1538;-44
2023/10/27 05:46:58;;;;;;;;;;;;;;;21.16;50.68;99646.28;7390676;19;1358;-45
2023/10/27 05:49:26;;;;;;;;;;;;;;;21.30;50.82;99652.75;7391539;19;1531;-44
2023/10/27 05:51:54;;;;;;;;;;;;;;;21.41;50.70;99660.41;7375710;19;1912;-45
2023/10/27 05:54:23;;;;;;;;;;;;;;;21.47;50.66;99648.97;7389392;19;2398;-44
2023/10/27 05:56:52;;;;;;;;;;;;;;;21.44;50.81;99636.69;7386363;19;1555;-44
2023/10/27 05:59:20;;;;;;;;;;;;;;;21.38;51.06;99634.69;7387872;19;1427;-44
2023/10/27 06:01:53;;;;;;;;;;;;;;;21.51;50.93;99644.09;7387267;19;1691;-44
2023/10/27 06:04:22;;;;;;;;;;;;;;;21.54;50.86;99638.31;7387847;19;1606;-44
2023/10/27 06:06:50;;;;;;;;;;;;;;;21.63;50.58;99642.63;7387525;19;1540;-44
2023/10/27 06:09:19;;;;;;;;;;;;;;;21.65;50.72;99651.38;7387864;19;1531;-45
2023/10/27 06:11:47;;;;;;;;;;;;;;;21.58;50.84;99635.09;7391646;19;1536;-45
2023/10/27 06:14:15;;;;;;;;;;;;;;;21.64;50.89;99633.53;7393227;19;1219;-44
2023/10/27 06:16:43;;;;;;;;;;;;;;;21.64;50.76;99628.16;7390127;19;1852;-43
2023/10/27 06:19:14;;;;;;;;;;;;;;;21.68;50.83;99631.31;7391999;19;1465;-43
2023/10/27 06:21:43;;;;;;;;;;;;;;;21.73;50.84;99643.22;7391351;19;1496;-45
2023/10/27 06:24:11;;;;;;;;;;;;;;;21.74;50.63;99628.72;7395007;19;1619;-43
2023/10/27 06:26:39;;;;;;;;;;;;;;;21.80;50.63;99643.31;7399736;19;1630;-44
2023/10/27 06:29:08;;;;;;;;;;;;;;;21.72;50.83;99633.47;7399491;19;1539;-44
2023/10/27 06:31:36;;;;;;;;;;;;;;;21.78;50.79;99621.97;7399429;19;1580;-44
2023/10/27 06:34:04;;;;;;;;;;;;;;;21.77;50.67;99639.16;7397564;19;1501;-44
2023/10/27 06:36:35;;;;;;;;;;;;;;;21.81;50.79;99635.06;7397156;19;1879;-44
2023/10/27 06:39:03;;;;;;;;;;;;;;;21.83;50.66;99633.03;7398806;19;1785;-44
2023/10/27 06:41:32;;;;;;;;;;;;;;;21.84;50.58;99629.34;7398244;19;1132;-43
2023/10/27 06:44:01;;;;;;;;;;;;;;;21.81;50.73;99612.72;7399167;19;1800;-44
2023/10/27 06:46:31;;;;;;;;;;;;;;;21.80;50.80;99617.25;7398867;19;1491;-44
2023/10/27 06:48:59;;;;;;;;;;;;;;;21.82;50.78;99625.97;7398458;19;1908;-43
2023/10/27 06:51:27;;;;;;;;;;;;;;;21.82;50.71;99635.91;7383319;19;1610;-45
2023/10/27 06:53:58;;;;;;;;;;;;;;;21.85;51.03;99630.19;7393998;19;2468;-44
2023/10/27 06:56:28;;;;;;;;;;;;;;;21.83;50.83;99626.84;7395558;19;1862;-44
2023/10/27 06:58:56;;;;;;;;;;;;;;;21.89;50.81;99619.88;7397124;19;1671;-45
2023/10/27 07:01:24;;;;;;;;;;;;;;;21.90;51.01;99629.63;7395516;19;1753;-44
2023/10/27 07:03:53;;;;;;;;;;;;;;;21.93;50.97;99645.41;7396015;19;1820;-45
2023/10/27 07:06:21;;;;;;;;;;;;;;;21.99;50.81;99636.59;7398182;19;1562;-44
2023/10/27 07:08:49;;;;;;;;;;;;;;;22.03;50.53;99621.75;7397450;19;1646;-44
2023/10/27 07:11:20;;;;;;;;;;;;;;;22.04;50.47;99618.91;7398894;19;1128;-45
2023/10/27 07:13:48;;;;;;;;;;;;;;;21.84;51.14;99605.13;7396449;19;1770;-44
2023/10/27 07:16:17;;;;;;;;;;;;;;;21.81;51.37;99608.16;7394917;19;1842;-44
2023/10/27 07:18:45;;;;;;;;;;;;;;;21.77;51.59;99609.56;7397090;19;1621;-45
2023/10/27 07:21:13;;;;;;;;;;;;;;;21.72;51.73;99603.88;7397248;19;1582;-44
2023/10/27 07:23:42;;;;;;;;;;;;;;;21.69;51.95;99598.88;7396769;19;1499;-45
2023/10/27 07:26:14;;;;;;;;;;;;;;;21.71;51.81;99596.81;7397722;19;1872;-45
2023/10/27 07:28:45;;;;;;;;;;;;;;;21.71;51.84;99599.50;7397588;19;1872;-45
2023/10/27 07:31:13;;;;;;;;;;;;;;;21.69;51.95;99592.66;7397952;19;1409;-44
2023/10/27 07:33:43;;;;;;;;;;;;;;;21.75;51.93;99606.19;7396832;19;1865;-45
2023/10/27 07:36:11;;;;;;;;;;;;;;;21.73;51.76;99593.97;7395421;19;1881;-45
2023/10/27 07:38:40;;;;;;;;;;;;;;;21.79;51.98;99601.31;7398857;19;1757;-45
2023/10/27 07:41:08;;;;;;;;;;;;;;;21.76;51.78;99593.56;7395879;19;1160;-45
2023/10/27 07:43:37;;;;;;;;;;;;;;;21.82;51.81;99604.44;7395566;19;1942;-45
2023/10/27 07:46:08;;;;;;;;;;;;;;;21.77;51.87;99603.34;7396012;19;1595;-45
2023/10/27 07:48:37;;;;;;;;;;;;;;;21.78;51.79;99597.75;7397096;19;1637;-44
2023/10/27 07:51:06;;;;;;;;;;;;;;;21.93;51.45;99596.97;7394118;19;1812;-44
2023/10/27 07:53:34;;;;;;;;;;;;;;;21.83;51.75;99599.91;7390629;19;1801;-45
2023/10/27 07:56:04;;;;;;;;;;;;;;;21.75;51.94;99605.38;7394562;19;1849;-45
2023/10/27 07:58:32;;;;;;;;;;;;;;;21.72;52.06;99601.16;7396417;19;1570;-44
2023/10/27 08:01:01;;;;;;;;;;;;;;;21.79;52.03;99607.50;7396498;19;1715;-45
2023/10/27 08:03:32;;;;;;;;;;;;;;;21.82;51.97;99598.22;7394790;19;1554;-45
2023/10/27 08:06:00;;;;;;;;;;;;;;;21.77;51.97;99589.88;7396169;19;1734;-45
2023/10/27 08:08:28;;;;;;;;;;;;;;;21.78;51.75;99603.13;7395733;19;1828;-47
2023/10/27 08:10:57;;;;;;;;;;;;;;;21.80;51.65;99589.50;7395635;19;1543;-45
2023/10/27 08:13:25;;;;;;;;;;;;;;;21.85;51.45;99587.13;7393745;19;1352;-45
2023/10/27 08:15:53;;;;;;;;;;;;;;;21.90;51.37;99589.25;7394119;19;1847;-45
2023/10/27 08:18:22;;;;;;;;;;;;;;;22.04;50.96;99602.75;7396579;19;1384;-45
2023/10/27 08:20:52;;;;;;;;;;;;;;;21.98;51.36;99586.47;7396016;19;1790;-44
2023/10/27 08:23:21;;;;;;;;;;;;;;;21.90;51.39;99616.16;7393406;19;1560;-45
2023/10/27 08:25:51;;;;;;;;;;;;;;;21.94;51.40;99586.00;7392919;19;1499;-45
2023/10/27 08:28:19;;;;;;;;;;;;;;;21.83;51.88;99579.22;7392020;19;1539;-45
2023/10/27 08:30:48;;;;;;;;;;;;;;;21.79;52.25;99593.22;7394849;19;1544;-45
2023/10/27 08:33:17;;;;;;;;;;;;;;;21.76;52.05;99591.72;7396088;19;1528;-45
2023/10/27 08:35:46;;;;;;;;;;;;;;;21.79;52.00;99577.91;7395800;19;1846;-44
2023/10/27 08:38:16;;;;;;;;;;;;;;;21.78;52.17;99588.84;7396856;19;1627;-43
2023/10/27 08:40:45;;;;;;;;;;;;;;;21.72;52.21;99587.72;7397223;19;994;-45
2023/10/27 08:43:14;;;;;;;;;;;;;;;21.76;51.98;99564.81;7395162;19;1642;-44
2023/10/27 08:45:44;;;;;;;;;;;;;;;21.76;51.99;99572.06;7396026;19;1750;-44
2023/10/27 08:48:12;;;;;;;;;;;;;;;21.79;51.87;99569.84;7393349;19;1717;-45
2023/10/27 08:50:41;;;;;;;;;;;;;;;21.85;52.01;99577.19;7393589;19;1911;-44
2023/10/27 08:53:12;;;;;;;;;;;;;;;21.85;51.86;99571.78;7381155;19;2499;-45
2023/10/27 08:55:43;;;;;;;;;;;;;;;21.90;51.84;99567.72;7394689;19;1849;-44
2023/10/27 08:58:11;;;;;;;;;;;;;;;22.01;51.67;99570.78;7391446;19;1540;-45
2023/10/27 09:00:39;;;;;;;;;;;;;;;22.08;51.66;99564.66;7395039;19;1845;-45
2023/10/27 09:03:17;;;;;;;;;;;;;;;22.13;51.74;99563.09;7394618;19;1750;-45
2023/10/27 09:05:46;;;;;;;;;;;;;;;22.12;51.34;99556.03;7393438;19;1519;-46
2023/10/27 09:08:14;;;;;;;;;;;;;;;22.10;51.91;99558.06;7394054;19;1575;-46
2023/10/27 09:10:46;;;;;;;;;;;;;;;22.22;51.68;99553.91;7395079;19;1722;-45
2023/10/27 09:13:14;;;;;;;;;;;;;;;22.52;50.89;99555.75;7393149;19;1441;-45
2023/10/27 09:15:45;;;;;;;;;;;;;;;22.30;51.81;99552.16;7393798;19;1850;-44
2023/10/27 09:18:13;;;;;;;;;;;;;;;22.12;52.10;99556.03;7392752;19;1038;-42
2023/10/27 09:20:48;;;;;;;;;;;;;;;22.14;52.23;99564.75;7392033;19;1754;-43
2023/10/27 09:23:17;;;;;;;;;;;;;;;22.08;52.23;99553.91;7385660;19;2431;-44
2023/10/27 09:25:48;;;;;;;;;;;;;;;22.17;52.01;99545.53;7389964;19;1666;-43
2023/10/27 09:28:29;;;;;;;;;;;;;;;22.05;52.28;99553.25;7390923;19;1832;-44
2023/10/27 09:30:57;;;;;;;;;;;;;;;21.99;52.22;99545.91;7392589;19;1733;-43
2023/10/27 09:33:27;;;;;;;;;;;;;;;21.91;52.56;99531.72;7392355;19;1805;-43
2023/10/27 09:35:58;;;;;;;;;;;;;;;21.85;52.62;99544.06;7391762;19;1858;-43
2023/10/27 09:38:27;;;;;;;;;;;;;;;21.89;52.43;99528.38;7393579;19;1718;-44
2023/10/27 09:40:59;;;;;;;;;;;;;;;21.84;52.38;99516.31;7391320;19;2583;-42
2023/10/27 09:43:28;;;;;;;;;;;;;;;21.85;52.42;99517.16;7392458;19;1629;-44
2023/10/27 09:45:57;;;;;;;;;;;;;;;21.86;52.24;99502.66;7390879;19;1514;-43
2023/10/27 09:48:27;;;;;;;;;;;;;;;21.88;52.37;99495.22;7388882;19;1551;-43
2023/10/27 09:50:59;;;;;;;;;;;;;;;21.87;52.65;99484.66;7389215;19;1495;-43
2023/10/27 09:53:29;;;;;;;;;;;;;;;21.85;52.52;99487.53;7373849;19;1549;-44
2023/10/27 09:56:02;;;;;;;;;;;;;;;21.84;52.21;99472.41;7389332;19;1862;-43
2023/10/27 09:58:32;;;;;;;;;;;;;;;21.86;52.13;99491.88;7389346;19;1726;-43
2023/10/27 10:01:02;;;;;;;;;;;;;;;21.81;51.92;99457.47;7393895;19;1720;-43
2023/10/27 10:03:32;;;;;;;;;;;;;;;21.85;51.71;99456.06;7395745;19;1531;-43
2023/10/27 10:06:11;;;;;;;;;;;;;;;21.85;51.65;99444.47;7400122;19;1663;-44
2023/10/27 10:08:40;;;;;;;;;;;;;;;21.84;51.19;99446.34;7397748;19;1675;-43
2023/10/27 10:11:18;;;;;;;;;;;;;;;21.90;51.21;99438.53;7400915;19;1867;-43
2023/10/27 10:13:48;;;;;;;;;;;;;;;21.84;51.55;99442.78;7400338;19;1900;-43
2023/10/27 10:16:17;;;;;;;;;;;;;;;21.81;51.34;99419.78;7395756;19;1861;-44
2023/10/27 10:18:55;;;;;;;;;;;;;;;21.82;51.60;99409.84;7399757;19;1666;-43
2023/10/27 10:21:35;;;;;;;;;;;;;;;21.88;51.58;99413.66;7399465;19;1363;-44
2023/10/27 10:24:12;;;;;;;;;;;;;;;21.82;51.49;99418.75;7400098;19;1384;-43
2023/10/27 10:26:53;;;;;;;;;;;;;;;21.88;51.71;99400.19;7398835;19;1189;-43
2023/10/27 10:29:33;;;;;;;;;;;;;;;21.85;51.74;99404.94;7399314;19;1474;-43
2023/10/27 10:32:29;;;;;;;;;;;;;;;21.84;51.84;99414.06;7400030;19;1887;-43
2023/10/27 10:35:21;;;;;;;;;;;;;;;21.79;51.51;99396.78;7395021;19;1641;-43
2023/10/27 10:37:51;;;;;;;;;;;;;;;21.85;51.53;99413.00;7395943;19;2574;-44
2023/10/27 10:40:22;;;;;;;;;;;;;;;21.84;51.57;99416.75;7399001;19;1227;-43
2023/10/27 10:43:06;;;;;;;;;;;;;;;21.83;51.01;99400.78;7396999;19;1432;-44
2023/10/27 10:45:45;;;;;;;;;;;;;;;21.92;51.74;99402.31;7396832;19;1646;-44
2023/10/27 10:48:15;;;;;;;;;;;;;;;22.11;51.09;99390.13;7396675;19;1749;-44
2023/10/27 10:50:43;;;;;;;;;;;;;;;22.16;51.21;99401.19;7397296;19;1840;-44
2023/10/27 10:53:12;;;;;;;;;;;;;;;22.10;51.23;99366.91;7382637;19;1518;-44
2023/10/27 10:55:41;;;;;;;;;;;;;;;22.01;51.21;99376.97;7397847;19;1619;-43
2023/10/27 10:58:09;;;;;;;;;;;;;;;22.05;51.06;99356.72;7396129;19;1822;-44
2023/10/27 11:00:40;;;;;;;;;;;;;;;22.07;50.97;99356.53;7396558;19;1577;-43
2023/10/27 11:03:09;;;;;;;;;;;;;;;22.10;50.69;99336.47;7397606;19;1853;-43
2023/10/27 11:05:37;;;;;;;;;;;;;;;22.14;51.06;99348.53;7398708;19;1590;-44
2023/10/27 11:08:06;;;;;;;;;;;;;;;22.30;50.22;99337.53;7399278;19;1179;-43
2023/10/27 11:10:35;;;;;;;;;;;;;;;22.33;50.73;99337.16;7394621;19;1753;-44
2023/10/27 11:13:04;;;;;;;;;;;;;;;22.39;50.34;99349.03;7394445;19;1495;-43
2023/10/27 11:15:48;;;;;;;;;;;;;;;22.30;50.73;99359.09;7396693;19;1542;-43
2023/10/27 11:18:17;;;;;;;;;;;;;;;22.18;50.54;99358.75;7396555;19;1858;-43
2023/10/27 11:20:47;;;;;;;;;;;;;;;22.09;50.47;99345.59;7398795;19;1778;-43
2023/10/27 11:23:17;;;;;;;;;;;;;;;22.02;50.52;99361.66;7397669;19;1884;-43
2023/10/27 11:25:46;;;;;;;;;;;;;;;22.01;50.55;99357.31;7394926;19;1730;-43
2023/10/27 11:28:26;;;;;;;;;;;;;;;21.57;50.22;99288.28;7397197;19;1515;-43
2023/10/27 11:31:08;;;;;;;;;;;;;;;22.01;50.64;99366.22;7397227;19;1738;-43
2023/10/27 11:33:56;;;;;;;;;;;;;;;22.08;50.49;99371.66;7396082;19;1488;-43
2023/10/27 11:36:25;;;;;;;;;;;;;;;22.14;50.23;99387.03;7395539;19;1849;-43
2023/10/27 11:38:53;;;;;;;;;;;;;;;22.14;49.91;99360.13;7397477;19;1524;-42
2023/10/27 11:41:21;;;;;;;;;;;;;;;22.13;49.97;99363.03;7397833;19;1730;-44
2023/10/27 11:43:50;;;;;;;;;;;;;;;22.15;49.82;99360.97;7397426;19;1811;-43
2023/10/27 11:46:21;;;;;;;;;;;;;;;22.15;49.67;99364.50;7395567;19;1833;-43
2023/10/27 11:48:50;;;;;;;;;;;;;;;22.18;49.76;99356.06;7395143;19;1824;-43
2023/10/27 11:51:19;;;;;;;;;;;;;;;22.19;49.78;99341.56;7396557;19;1710;-43
2023/10/27 11:53:47;;;;;;;;;;;;;;;22.24;49.27;99355.31;7382205;19;1591;-43
2023/10/27 11:56:16;;;;;;;;;;;;;;;21.92;49.06;99288.47;7395339;19;1844;-43
2023/10/27 11:58:44;;;;;;;;;;;;;;;22.23;49.38;99342.84;7396018;19;1566;-43
2023/10/27 12:01:12;;;;;;;;;;;;;;;22.29;49.26;99348.53;7397105;19;1762;-44
2023/10/27 12:03:44;;;;;;;;;;;;;;;22.31;48.97;99349.16;7396516;19;1559;-44
2023/10/27 12:06:12;;;;;;;;;;;;;;;22.34;49.17;99338.00;7396425;19;1868;-44
2023/10/27 12:08:40;;;;;;;;;;;;;;;22.31;48.72;99323.06;7396422;19;1520;-43
2023/10/27 12:11:09;;;;;;;;;;;;;;;22.37;49.49;99318.78;7396378;19;1462;-43
2023/10/27 12:13:37;;;;;;;;;;;;;;;22.28;49.50;99311.84;7395680;19;1919;-43
2023/10/27 12:16:05;;;;;;;;;;;;;;;22.23;48.91;99320.47;7396163;19;1819;-43
2023/10/27 12:18:35;;;;;;;;;;;;;;;22.23;48.87;99318.59;7393601;19;1852;-43
2023/10/27 12:21:06;;;;;;;;;;;;;;;22.22;49.77;99292.72;7396059;19;1742;-43
2023/10/27 12:23:34;;;;;;;;;;;;;;;22.20;49.52;99284.00;7396900;19;1007;-43
2023/10/27 12:26:03;;;;;;;;;;;;;;;22.20;49.50;99300.16;7395263;19;1478;-43
2023/10/27 12:28:32;;;;;;;;;;;;;;;22.22;50.11;99278.41;7392868;19;1757;-44
2023/10/27 12:31:01;;;;;;;;;;;;;;;22.16;49.46;99315.03;7394443;19;1716;-43
2023/10/27 12:33:30;;;;;;;;;;;;;;;22.14;49.83;99283.91;7394804;19;1338;-43
2023/10/27 12:35:58;;;;;;;;;;;;;;;22.16;49.88;99288.09;7395341;19;1503;-43
2023/10/27 12:38:29;;;;;;;;;;;;;;;22.17;50.23;99291.63;7394213;19;1877;-43
2023/10/27 12:40:58;;;;;;;;;;;;;;;22.18;49.90;99296.81;7394292;19;1451;-42
2023/10/27 12:43:27;;;;;;;;;;;;;;;22.13;49.46;99293.84;7394917;19;1548;-43
2023/10/27 12:45:55;;;;;;;;;;;;;;;22.14;49.02;99279.34;7394195;19;1499;-43
2023/10/27 12:48:23;;;;;;;;;;;;;;;22.09;48.77;99287.19;7393336;19;1521;-44
2023/10/27 12:50:52;;;;;;;;;;;;;;;22.08;48.92;99300.84;7394083;19;1726;-43
2023/10/27 12:53:20;;;;;;;;;;;;;;;22.07;49.27;99283.03;7378566;19;1734;-43
2023/10/27 12:55:51;;;;;;;;;;;;;;;22.10;49.62;99282.63;7394270;19;1769;-44
2023/10/27 12:58:19;;;;;;;;;;;;;;;22.13;49.08;99280.41;7392494;19;1845;-44
2023/10/27 13:00:48;;;;;;;;;;;;;;;22.11;48.92;99265.47;7393556;19;1571;-43
2023/10/27 13:03:17;;;;;;;;;;;;;;;22.12;48.90;99270.63;7393932;19;1754;-42
2023/10/27 13:05:45;;;;;;;;;;;;;;;22.10;48.62;99267.31;7394744;19;1555;-43
2023/10/27 13:08:14;;;;;;;;;;;;;;;22.14;48.55;99273.97;7395386;19;1125;-43
2023/10/27 13:10:43;;;;;;;;;;;;;;;22.13;48.63;99263.41;7395039;19;1729;-43